Time;durP1;ratioP1;P1;durP2;ratioP2;P2;SDS_P1;SDS_P2;PMS_P1;PMS_P2;Temp;Humidity;BMP_temperature;BMP_pressure;BME280_temperature;BME280_humidity;BME280_pressure;Samples;Min_cycle;Max_cycle;Signal;HPM_P1;HPM_P2
2021/06/12 00:01:01;;;;;;;19.23;6.35;;;;;;;16.41;85.05;102100.47;5057186;28;20172;-77
2021/06/12 00:03:29;;;;;;;24.73;7.68;;;;;;;16.39;84.83;102097.81;5050424;28;20911;-76
2021/06/12 00:05:57;;;;;;;20.10;7.20;;;;;;;16.42;84.35;102100.41;5057237;28;20064;-76
2021/06/12 00:08:25;;;;;;;27.58;8.38;;;;;;;16.39;84.82;102096.97;5054760;28;20332;-77
2021/06/12 00:10:52;;;;;;;21.67;7.32;;;;;;;16.41;84.87;102104.06;5055010;28;20134;-76
2021/06/12 00:13:19;;;;;;;17.92;7.30;;;;;;;16.49;84.29;102097.50;5055990;28;20052;-76
2021/06/12 00:15:47;;;;;;;22.70;7.88;;;;;;;16.42;85.05;102091.47;5060069;28;20107;-76
2021/06/12 00:18:15;;;;;;;16.75;6.95;;;;;;;16.37;84.90;102088.94;5055583;28;20151;-77
2021/06/12 00:20:42;;;;;;;23.92;7.22;;;;;;;16.40;84.66;102099.59;5053856;28;20057;-78
2021/06/12 00:23:11;;;;;;;22.05;5.97;;;;;;;16.41;84.79;102098.69;5054140;28;20900;-76
2021/06/12 00:25:38;;;;;;;24.42;6.47;;;;;;;16.43;84.89;102095.94;5054934;28;20053;-77
2021/06/12 00:28:07;;;;;;;22.85;7.82;;;;;;;16.37;84.94;102091.63;5051432;28;20063;-78
2021/06/12 00:30:35;;;;;;;16.08;6.55;;;;;;;16.38;85.03;102088.00;5052975;28;20188;-72
2021/06/12 00:33:03;;;;;;;16.15;6.93;;;;;;;16.45;85.04;102088.66;5052830;28;20053;-72
2021/06/12 00:35:30;;;;;;;18.35;7.28;;;;;;;16.32;85.54;102085.53;5049668;28;20052;-72
2021/06/12 00:37:57;;;;;;;22.70;7.20;;;;;;;16.40;85.12;102085.25;5051909;28;20064;-70
2021/06/12 00:40:26;;;;;;;19.88;7.95;;;;;;;16.38;85.51;102087.13;5053501;28;20182;-71
2021/06/12 00:42:55;;;;;;;16.65;6.60;;;;;;;16.38;85.44;102085.31;5054648;28;20144;-71
2021/06/12 00:45:24;;;;;;;21.55;6.15;;;;;;;16.49;85.18;102087.59;5048617;28;20056;-71
2021/06/12 00:47:54;;;;;;;25.05;8.57;;;;;;;16.46;85.32;102090.41;5056435;28;20064;-71
2021/06/12 00:50:26;;;;;;;18.48;6.97;;;;;;;16.49;85.10;102093.00;5068663;28;20131;-72
2021/06/12 00:52:54;;;;;;;18.23;5.75;;;;;;;16.52;85.14;102105.47;5057085;28;20067;-71
2021/06/12 00:55:21;;;;;;;19.10;6.20;;;;;;;16.48;85.40;102096.63;5049703;28;20125;-71
2021/06/12 00:57:51;;;;;;;21.55;9.00;;;;;;;16.48;85.18;102098.44;5055225;28;20090;-75
2021/06/12 01:00:21;;;;;;;21.90;7.30;;;;;;;16.56;84.64;102101.72;5049037;28;20150;-76
2021/06/12 01:02:49;;;;;;;22.48;7.90;;;;;;;16.54;84.99;102092.81;5057173;28;20147;-77
2021/06/12 01:05:19;;;;;;;21.13;7.15;;;;;;;16.56;84.94;102094.50;5048355;28;20048;-77
2021/06/12 01:07:47;;;;;;;20.10;8.45;;;;;;;16.48;85.32;102091.25;5055822;28;20061;-77
2021/06/12 01:10:17;;;;;;;19.33;7.28;;;;;;;16.53;84.84;102100.03;5051616;28;20064;-77
2021/06/12 01:13:04;;;;;;;17.30;6.80;;;;;;;16.56;84.64;102099.91;5057106;28;20137;-77
2021/06/12 01:15:38;;;;;;;17.15;6.85;;;;;;;16.55;84.91;102097.25;5051574;28;20171;-78
2021/06/12 01:18:09;;;;;;;19.63;7.45;;;;;;;16.51;84.92;102096.50;5055111;28;20053;-78
2021/06/12 01:20:56;;;;;;;20.52;6.85;;;;;;;16.46;84.66;102094.91;5050784;28;20060;-77
2021/06/12 01:24:02;;;;;;;20.15;7.47;;;;;;;16.46;85.27;102095.78;5058009;28;20153;-77
2021/06/12 01:27:21;;;;;;;19.70;9.30;;;;;;;16.48;84.97;102103.81;5051276;28;20056;-77
2021/06/12 01:30:12;;;;;;;22.77;8.63;;;;;;;16.43;85.00;102110.25;5051124;28;20049;-71
2021/06/12 01:32:43;;;;;;;19.92;7.95;;;;;;;16.48;85.29;102106.50;5053080;28;20063;-70
2021/06/12 01:35:15;;;;;;;17.08;8.05;;;;;;;16.41;85.50;102103.16;5051711;28;20082;-72
2021/06/12 01:37:46;;;;;;;24.30;9.48;;;;;;;16.37;85.48;102094.31;5053079;28;20062;-72
2021/06/12 01:40:15;;;;;;;23.27;8.45;;;;;;;16.41;85.48;102093.28;5053627;28;20052;-70
2021/06/12 01:42:47;;;;;;;19.00;7.82;;;;;;;16.43;85.28;102086.03;5051105;28;20060;-71
2021/06/12 01:45:17;;;;;;;20.00;8.25;;;;;;;16.46;85.51;102094.91;5057145;28;20056;-71
2021/06/12 01:47:45;;;;;;;19.88;7.75;;;;;;;16.42;85.65;102078.88;5050636;28;20059;-71
2021/06/12 01:50:15;;;;;;;25.45;9.73;;;;;;;16.40;85.20;102087.97;5058250;28;20416;-71
2021/06/12 01:52:43;;;;;;;27.80;10.02;;;;;;;16.35;85.55;102087.25;5050394;28;20072;-71
2021/06/12 01:55:13;;;;;;;19.35;8.98;;;;;;;16.34;85.44;102089.03;5057993;28;20049;-76
2021/06/12 01:57:42;;;;;;;23.67;9.77;;;;;;;16.36;85.58;102084.50;5052237;28;20114;-71
2021/06/12 02:00:11;;;;;;;24.77;8.90;;;;;;;16.39;85.17;102088.88;5057475;28;20064;-71
2021/06/12 02:02:41;;;;;;;26.00;9.13;;;;;;;16.29;85.66;102092.84;5052104;28;20060;-71
2021/06/12 02:05:12;;;;;;;19.30;8.35;;;;;;;16.30;85.33;102087.41;5057040;28;20056;-71
2021/06/12 02:07:42;;;;;;;22.98;8.68;;;;;;;16.35;85.08;102082.72;5049514;28;20060;-71
2021/06/12 02:10:12;;;;;;;28.85;10.88;;;;;;;16.35;84.99;102081.84;5056714;28;20068;-71
2021/06/12 02:12:40;;;;;;;24.38;9.13;;;;;;;16.31;85.19;102086.47;5052998;28;20052;-71
2021/06/12 02:15:12;;;;;;;27.75;9.77;;;;;;;16.21;84.95;102085.94;5059095;28;20421;-71
2021/06/12 02:17:41;;;;;;;23.95;8.70;;;;;;;16.19;85.28;102087.81;5054675;28;20052;-71
2021/06/12 02:20:11;;;;;;;18.15;8.57;;;;;;;16.22;85.29;102076.91;5059144;28;20083;-71
2021/06/12 02:22:43;;;;;;;21.10;9.38;;;;;;;16.25;84.60;102078.59;5053725;28;20068;-71
2021/06/12 02:25:11;;;;;;;21.52;9.10;;;;;;;16.16;85.32;102084.34;5058133;28;20363;-72
2021/06/12 02:27:41;;;;;;;23.65;9.23;;;;;;;16.17;85.18;102073.50;5069809;28;20056;-71
2021/06/12 02:30:10;;;;;;;27.15;9.75;;;;;;;16.22;85.13;102076.03;5058676;28;20167;-72
2021/06/12 02:32:41;;;;;;;21.00;8.48;;;;;;;16.23;84.89;102067.88;5049217;28;22026;-71
2021/06/12 02:35:11;;;;;;;17.95;8.15;;;;;;;16.23;85.10;102070.59;5071790;28;20460;-74
2021/06/12 02:37:41;;;;;;;24.30;9.07;;;;;;;16.14;85.05;102073.63;5052753;28;20126;-71
2021/06/12 02:40:09;;;;;;;24.38;8.50;;;;;;;16.21;85.16;102082.38;5061215;28;20067;-72
2021/06/12 02:42:37;;;;;;;27.23;9.57;;;;;;;16.14;85.37;102078.09;5054724;28;20060;-71
2021/06/12 02:45:08;;;;;;;22.08;8.90;;;;;;;16.17;85.17;102072.63;5055819;28;20139;-71
2021/06/12 02:47:37;;;;;;;25.60;9.93;;;;;;;16.10;85.08;102069.25;5054268;28;20179;-71
2021/06/12 02:50:07;;;;;;;25.33;9.85;;;;;;;16.15;85.25;102069.97;5054327;28;20102;-72
2021/06/12 02:52:37;;;;;;;23.60;10.52;;;;;;;16.17;85.22;102081.56;5056524;28;20148;-72
2021/06/12 02:55:08;;;;;;;26.25;11.57;;;;;;;16.06;85.70;102081.09;5054314;28;20063;-72
2021/06/12 02:57:37;;;;;;;27.17;10.77;;;;;;;16.11;85.71;102076.41;5055393;28;20103;-72
2021/06/12 03:00:06;;;;;;;22.85;9.57;;;;;;;16.15;85.01;102079.88;5069840;28;20064;-72
2021/06/12 03:02:37;;;;;;;21.30;9.80;;;;;;;16.17;85.28;102075.31;5052013;28;20069;-72
2021/06/12 03:05:07;;;;;;;21.73;9.82;;;;;;;16.09;85.45;102074.69;5054799;28;20084;-72
2021/06/12 03:07:36;;;;;;;23.15;10.38;;;;;;;16.15;85.05;102083.44;5056134;28;20052;-71
2021/06/12 03:10:04;;;;;;;20.25;9.43;;;;;;;16.12;85.37;102091.63;5052895;28;20060;-72
2021/06/12 03:12:32;;;;;;;21.52;9.70;;;;;;;16.11;85.30;102086.31;5053769;28;20414;-71
2021/06/12 03:15:01;;;;;;;16.50;8.27;;;;;;;16.13;84.90;102092.53;5053367;28;20061;-72
2021/06/12 03:17:30;;;;;;;21.10;9.30;;;;;;;16.15;84.38;102098.72;5055651;28;20056;-71
2021/06/12 03:19:59;;;;;;;22.52;8.82;;;;;;;16.05;84.46;102101.72;5053219;28;20052;-72
2021/06/12 03:22:26;;;;;;;21.58;9.10;;;;;;;16.09;84.11;102097.13;5059638;28;20509;-72
2021/06/12 03:24:56;;;;;;;19.25;8.93;;;;;;;16.09;83.90;102094.44;5053580;28;20060;-72
2021/06/12 03:27:25;;;;;;;20.08;9.05;;;;;;;16.00;83.71;102090.25;5060201;28;20064;-72
2021/06/12 03:29:53;;;;;;;19.70;9.68;;;;;;;16.01;83.67;102089.31;5052472;28;20111;-72
2021/06/12 03:32:20;;;;;;;18.88;9.02;;;;;;;15.99;83.43;102093.88;5058248;28;20064;-72
2021/06/12 03:34:48;;;;;;;17.35;8.48;;;;;;;15.90;83.69;102098.69;5052643;28;20056;-72
2021/06/12 03:37:16;;;;;;;19.25;7.70;;;;;;;16.01;83.35;102107.28;5055224;28;20061;-71
2021/06/12 03:39:44;;;;;;;18.98;8.48;;;;;;;16.02;83.50;102112.63;5072528;28;20207;-72
2021/06/12 03:42:15;;;;;;;17.13;8.55;;;;;;;15.93;83.45;102106.69;5052996;28;20052;-73
2021/06/12 03:44:45;;;;;;;23.05;8.77;;;;;;;16.00;83.32;102111.78;5052811;28;20063;-72
2021/06/12 03:47:13;;;;;;;19.92;8.32;;;;;;;15.92;83.25;102104.91;5048679;28;20444;-71
2021/06/12 03:49:41;;;;;;;19.00;9.75;;;;;;;15.85;83.35;102104.22;5053817;28;20478;-77
2021/06/12 03:52:10;;;;;;;18.20;7.78;;;;;;;15.84;83.34;102102.50;5053667;28;20052;-72
2021/06/12 03:54:37;;;;;;;17.05;7.65;;;;;;;15.95;83.30;102111.06;5054102;28;20059;-72
2021/06/12 03:57:06;;;;;;;17.67;7.75;;;;;;;15.97;83.34;102114.59;5051739;28;20061;-73
2021/06/12 03:59:35;;;;;;;17.85;8.43;;;;;;;15.90;82.97;102120.22;5054403;28;20053;-72
2021/06/12 04:02:02;;;;;;;16.20;8.23;;;;;;;15.94;83.18;102119.22;5052774;28;20345;-72
2021/06/12 04:04:30;;;;;;;16.67;8.15;;;;;;;15.93;83.25;102122.81;5051395;28;20053;-72
2021/06/12 04:06:57;;;;;;;16.35;7.97;;;;;;;15.94;82.90;102133.53;5054228;28;20073;-72
2021/06/12 04:09:25;;;;;;;16.83;7.32;;;;;;;15.97;82.81;102133.44;5054314;28;20061;-72
2021/06/12 04:11:52;;;;;;;16.48;7.70;;;;;;;16.00;82.61;102137.81;5052997;28;20600;-71
2021/06/12 04:14:20;;;;;;;20.92;9.07;;;;;;;15.84;82.32;102138.34;5052625;28;20068;-74
2021/06/12 04:16:48;;;;;;;16.60;7.32;;;;;;;15.80;82.76;102135.78;5055891;28;20056;-71
2021/06/12 04:19:16;;;;;;;16.67;7.50;;;;;;;15.93;82.43;102134.47;5052305;28;20071;-71
2021/06/12 04:21:43;;;;;;;15.43;7.13;;;;;;;15.80;81.78;102138.50;5054256;28;20126;-72
2021/06/12 04:24:11;;;;;;;15.50;6.97;;;;;;;15.89;81.59;102140.91;5052869;28;20463;-72
2021/06/12 04:26:38;;;;;;;13.38;7.15;;;;;;;15.86;80.99;102133.78;5053833;28;20060;-71
2021/06/12 04:29:06;;;;;;;14.95;5.82;;;;;;;15.80;80.72;102131.31;5051731;28;20049;-71
2021/06/12 04:31:34;;;;;;;14.38;7.00;;;;;;;15.78;80.13;102124.22;5055232;28;20044;-72
2021/06/12 04:34:03;;;;;;;11.77;6.07;;;;;;;15.83;79.77;102136.59;5050310;28;20048;-71
2021/06/12 04:36:30;;;;;;;15.93;7.05;;;;;;;15.84;79.31;102132.09;5056657;28;20064;-71
2021/06/12 04:38:57;;;;;;;13.35;6.75;;;;;;;15.77;79.06;102133.25;5055859;28;20167;-71
2021/06/12 04:41:25;;;;;;;15.52;6.00;;;;;;;15.83;79.13;102133.91;5054463;28;20172;-72
2021/06/12 04:43:52;;;;;;;15.98;5.57;;;;;;;15.84;78.87;102118.63;5068160;28;20103;-73
2021/06/12 04:46:20;;;;;;;19.90;7.22;;;;;;;15.97;78.95;102119.06;5057230;28;20056;-76
2021/06/12 04:48:48;;;;;;;15.15;6.43;;;;;;;15.98;78.24;102120.84;5052634;28;20152;-76
2021/06/12 04:51:17;;;;;;;15.68;5.93;;;;;;;15.93;78.38;102126.38;5060361;28;20056;-75
2021/06/12 04:53:44;;;;;;;12.43;5.88;;;;;;;15.97;78.42;102133.44;5054344;28;20056;-76
2021/06/12 04:56:12;;;;;;;15.98;5.90;;;;;;;15.99;77.48;102133.41;5058395;28;20132;-76
2021/06/12 04:58:39;;;;;;;16.00;6.10;;;;;;;16.06;77.39;102133.13;5053772;28;20060;-75
2021/06/12 05:01:06;;;;;;;14.02;6.05;;;;;;;16.11;76.76;102138.34;5059426;28;21301;-76
2021/06/12 05:03:36;;;;;;;14.57;6.30;;;;;;;16.16;76.17;102147.13;5058444;28;20044;-77
2021/06/12 05:06:04;;;;;;;13.48;6.03;;;;;;;16.15;75.77;102153.44;5057955;28;20069;-76
2021/06/12 05:08:33;;;;;;;13.45;5.80;;;;;;;16.08;74.69;102161.81;5063043;28;20110;-78
2021/06/12 05:11:00;;;;;;;12.88;5.43;;;;;;;16.12;75.27;102166.13;5059013;28;20071;-77
2021/06/12 05:13:28;;;;;;;14.35;6.47;;;;;;;16.06;74.09;102172.63;5061349;28;20147;-77
2021/06/12 05:15:59;;;;;;;10.23;5.22;;;;;;;16.07;73.85;102166.28;5059460;28;20060;-76
2021/06/12 05:18:33;;;;;;;13.18;5.40;;;;;;;16.14;73.18;102154.41;5063315;28;20090;-77
2021/06/12 05:21:00;;;;;;;13.35;5.53;;;;;;;16.20;72.99;102147.91;5056091;28;20072;-76
2021/06/12 05:23:29;;;;;;;13.68;5.45;;;;;;;16.18;71.59;102158.72;5059877;28;20067;-75
2021/06/12 05:25:58;;;;;;;10.98;5.07;;;;;;;16.50;71.68;102151.34;5057204;28;22107;-76
2021/06/12 05:28:25;;;;;;;13.55;5.70;;;;;;;16.58;71.25;102146.56;5059534;28;20063;-76
2021/06/12 05:30:52;;;;;;;12.55;5.30;;;;;;;16.55;70.76;102153.84;5055501;28;20063;-76
2021/06/12 05:33:20;;;;;;;14.43;5.78;;;;;;;16.57;69.03;102157.38;5057235;28;20092;-77
2021/06/12 05:35:48;;;;;;;12.68;5.05;;;;;;;16.55;69.10;102173.59;5054920;28;20174;-76
2021/06/12 05:38:16;;;;;;;12.43;5.28;;;;;;;16.56;68.19;102166.38;5058249;28;20151;-77
2021/06/12 05:40:44;;;;;;;14.35;5.93;;;;;;;16.50;67.73;102163.91;5053688;28;20064;-77
2021/06/12 05:43:13;;;;;;;17.10;5.22;;;;;;;16.42;67.79;102175.84;5076030;28;20076;-77
2021/06/12 05:45:40;;;;;;;16.58;4.60;;;;;;;16.37;67.38;102175.13;5053990;28;20497;-76
2021/06/12 05:48:08;;;;;;;18.48;5.20;;;;;;;16.45;66.97;102174.88;5053951;28;20135;-77
2021/06/12 05:50:35;;;;;;;12.02;5.30;;;;;;;16.67;66.86;102171.38;5048846;28;20059;-72
2021/06/12 05:53:02;;;;;;;12.00;5.10;;;;;;;16.70;66.47;102180.25;5053550;28;20067;-72
2021/06/12 05:55:30;;;;;;;13.10;5.50;;;;;;;17.18;66.45;102175.81;5053753;28;20072;-76
2021/06/12 05:57:58;;;;;;;10.48;5.13;;;;;;;17.48;64.59;102180.91;5053661;28;20057;-77
2021/06/12 06:00:27;;;;;;;8.63;4.20;;;;;;;17.26;63.47;102176.34;5054265;28;20057;-77
2021/06/12 06:02:56;;;;;;;11.90;4.90;;;;;;;17.33;62.38;102187.78;5051368;28;20975;-76
2021/06/12 06:05:24;;;;;;;13.75;5.82;;;;;;;17.48;62.57;102181.78;5055620;28;20471;-77
2021/06/12 06:07:52;;;;;;;11.88;4.70;;;;;;;17.38;62.22;102185.78;5069156;28;20052;-78
2021/06/12 06:10:19;;;;;;;12.68;4.55;;;;;;;17.34;61.67;102193.13;5054650;28;20065;-77
2021/06/12 06:12:47;;;;;;;10.30;4.20;;;;;;;17.24;61.93;102189.03;5050441;28;20138;-78
2021/06/12 06:15:16;;;;;;;10.90;4.45;;;;;;;17.03;61.51;102187.19;5055402;28;20138;-79
2021/06/12 06:17:45;;;;;;;11.95;4.43;;;;;;;17.12;61.56;102184.97;5051222;28;20064;-77
2021/06/12 06:20:14;;;;;;;10.63;4.10;;;;;;;17.12;61.23;102192.22;5054900;28;20052;-78
2021/06/12 06:22:42;;;;;;;13.50;4.70;;;;;;;17.42;60.62;102186.53;5051356;28;20068;-78
2021/06/12 06:25:11;;;;;;;9.52;4.35;;;;;;;17.35;60.58;102194.91;5053413;28;20064;-77
2021/06/12 06:27:39;;;;;;;12.00;4.53;;;;;;;17.59;60.77;102202.06;5049349;28;20068;-77
2021/06/12 06:30:08;;;;;;;15.50;4.85;;;;;;;17.68;60.52;102216.06;5055576;28;20088;-73
2021/06/12 06:32:36;;;;;;;11.05;4.85;;;;;;;17.84;59.45;102210.06;5047786;28;20065;-73
2021/06/12 06:35:06;;;;;;;9.63;4.18;;;;;;;17.77;58.45;102198.63;5055337;28;20052;-74
2021/06/12 06:37:34;;;;;;;11.27;4.55;;;;;;;17.68;58.66;102204.41;5066543;28;20049;-75
2021/06/12 06:40:03;;;;;;;10.90;4.20;;;;;;;17.48;59.23;102203.38;5056391;28;20060;-73
2021/06/12 06:42:31;;;;;;;13.38;4.47;;;;;;;17.62;59.13;102205.56;5050994;28;20049;-73
2021/06/12 06:44:59;;;;;;;10.05;4.30;;;;;;;17.66;58.45;102209.88;5058245;28;20057;-76
2021/06/12 06:47:26;;;;;;;9.65;3.97;;;;;;;18.01;59.34;102206.69;5051608;28;20103;-75
2021/06/12 06:49:54;;;;;;;9.35;4.20;;;;;;;17.77;58.15;102205.84;5058138;28;20136;-77
2021/06/12 06:52:23;;;;;;;11.77;4.47;;;;;;;17.87;57.85;102208.13;5054428;28;20067;-74
2021/06/12 06:54:51;;;;;;;10.00;4.47;;;;;;;18.34;58.24;102201.69;5069381;28;20048;-74
2021/06/12 06:57:19;;;;;;;10.02;4.40;;;;;;;18.84;57.56;102213.94;5052485;28;20056;-75
2021/06/12 06:59:46;;;;;;;11.02;4.53;;;;;;;18.35;57.58;102219.63;5053624;28;20259;-76
2021/06/12 07:02:14;;;;;;;9.30;4.45;;;;;;;18.16;57.69;102218.69;5054487;28;20129;-77
2021/06/12 07:04:42;;;;;;;10.35;4.07;;;;;;;17.96;56.90;102209.56;5053333;28;20065;-74
2021/06/12 07:07:10;;;;;;;14.23;4.28;;;;;;;18.22;57.45;102221.13;5056549;28;20048;-74
2021/06/12 07:09:39;;;;;;;12.73;4.63;;;;;;;18.15;58.07;102228.63;5051135;28;20073;-74
2021/06/12 07:12:08;;;;;;;9.82;4.93;;;;;;;18.17;57.47;102225.84;5055870;28;20057;-74
2021/06/12 07:14:37;;;;;;;13.88;4.78;;;;;;;17.98;58.38;102240.13;5054230;28;20056;-74
2021/06/12 07:17:05;;;;;;;10.90;4.38;;;;;;;18.20;58.52;102247.31;5053705;28;20061;-74
2021/06/12 07:19:33;;;;;;;12.02;4.95;;;;;;;17.98;58.50;102256.31;5054052;28;20068;-74
2021/06/12 07:22:00;;;;;;;12.48;4.47;;;;;;;18.01;58.64;102255.31;5057524;28;20057;-74
2021/06/12 07:24:28;;;;;;;12.13;4.60;;;;;;;18.04;57.76;102247.94;5051551;28;20096;-73
2021/06/12 07:26:58;;;;;;;13.80;4.50;;;;;;;18.23;56.99;102250.75;5055850;28;20056;-74
2021/06/12 07:29:25;;;;;;;13.63;4.60;;;;;;;17.91;57.04;102255.69;5051587;28;20088;-74
2021/06/12 07:31:53;;;;;;;8.80;4.55;;;;;;;18.10;57.73;102253.09;5057621;28;20064;-73
2021/06/12 07:34:21;;;;;;;9.70;4.18;;;;;;;18.41;57.24;102251.81;5050637;28;20064;-74
2021/06/12 07:36:48;;;;;;;10.38;4.47;;;;;;;18.99;55.34;102248.41;5056197;28;20060;-73
2021/06/12 07:39:16;;;;;;;12.35;4.78;;;;;;;18.68;55.33;102254.28;5053939;28;20053;-75
2021/06/12 07:41:44;;;;;;;12.80;4.88;;;;;;;18.92;55.52;102252.34;5056497;28;20102;-75
2021/06/12 07:44:13;;;;;;;11.93;4.47;;;;;;;19.29;54.64;102250.66;5052443;28;20122;-77
2021/06/12 07:46:40;;;;;;;12.48;4.25;;;;;;;19.38;53.77;102255.63;5050395;28;20064;-76
2021/06/12 07:49:11;;;;;;;16.25;4.78;;;;;;;18.71;54.90;102255.94;5055302;28;20198;-77
2021/06/12 07:51:39;;;;;;;14.73;4.63;;;;;;;18.38;56.31;102272.69;5053545;28;20072;-78
2021/06/12 07:54:06;;;;;;;12.55;4.22;;;;;;;18.46;56.23;102266.00;5056158;28;20068;-76
2021/06/12 07:56:34;;;;;;;10.65;4.68;;;;;;;18.08;56.92;102275.72;5050823;28;20056;-77
2021/06/12 07:59:02;;;;;;;12.27;4.85;;;;;;;18.14;56.81;102267.38;5052399;28;20052;-76
2021/06/12 08:01:34;;;;;;;12.30;4.53;;;;;;;18.41;57.08;102267.16;5048419;28;20056;-76
2021/06/12 08:04:02;;;;;;;12.27;4.78;;;;;;;18.36;56.20;102277.28;5053273;28;20056;-76
2021/06/12 08:06:30;;;;;;;13.63;4.70;;;;;;;18.40;55.56;102278.91;5054413;28;20506;-76
2021/06/12 08:08:57;;;;;;;12.30;4.90;;;;;;;18.34;56.55;102279.16;5073792;28;20117;-78
2021/06/12 08:11:26;;;;;;;14.13;4.78;;;;;;;18.15;55.35;102276.34;5051391;28;20064;-73
2021/06/12 08:13:53;;;;;;;12.80;4.82;;;;;;;18.38;55.64;102284.38;5051824;28;20052;-73
2021/06/12 08:16:21;;;;;;;11.60;4.78;;;;;;;18.34;55.94;102287.25;5052664;28;20534;-73
2021/06/12 08:18:50;;;;;;;15.18;4.82;;;;;;;18.12;56.18;102285.47;5071626;28;20062;-74
2021/06/12 08:21:17;;;;;;;11.95;4.47;;;;;;;18.23;55.94;102282.31;5053587;28;20056;-73
2021/06/12 08:23:45;;;;;;;10.77;4.50;;;;;;;18.54;55.52;102275.59;5058703;28;20060;-74
2021/06/12 08:26:13;;;;;;;16.45;6.30;;;;;;;18.83;55.67;102282.47;5055668;28;20064;-73
2021/06/12 08:28:40;;;;;;;13.85;5.28;;;;;;;18.61;54.79;102291.50;5053712;28;20057;-73
2021/06/12 08:31:08;;;;;;;14.18;4.60;;;;;;;18.45;55.78;102293.97;5056561;28;20067;-74
2021/06/12 08:33:35;;;;;;;13.48;4.85;;;;;;;18.47;54.92;102299.31;5050537;28;20134;-74
2021/06/12 08:36:05;;;;;;;14.07;4.50;;;;;;;18.45;54.79;102298.50;5053909;28;20064;-74
2021/06/12 08:38:33;;;;;;;15.18;4.85;;;;;;;18.29;54.74;102307.25;5048555;28;20060;-74
2021/06/12 08:41:01;;;;;;;14.32;4.95;;;;;;;18.59;54.12;102311.44;5055097;28;20056;-74
2021/06/12 08:43:30;;;;;;;11.07;4.25;;;;;;;18.59;53.90;102315.03;5049273;28;20067;-74
2021/06/12 08:45:59;;;;;;;9.90;4.38;;;;;;;18.66;53.62;102310.22;5055304;28;20226;-73
2021/06/12 08:48:28;;;;;;;15.10;4.72;;;;;;;18.66;52.87;102312.91;5067443;28;20175;-74
2021/06/12 08:50:57;;;;;;;12.75;4.63;;;;;;;18.67;53.21;102312.84;5052060;28;20055;-73
2021/06/12 08:53:27;;;;;;;8.27;4.22;;;;;;;18.78;52.04;102308.81;5047067;28;20072;-73
2021/06/12 08:55:55;;;;;;;12.75;4.82;;;;;;;19.45;51.38;102301.38;5070101;28;20067;-74
2021/06/12 08:58:23;;;;;;;8.95;3.90;;;;;;;19.20;50.36;102294.38;5048132;28;20061;-72
2021/06/12 09:00:50;;;;;;;9.55;3.67;;;;;;;19.46;49.50;102312.13;5054661;28;20044;-75
2021/06/12 09:03:20;;;;;;;16.02;4.32;;;;;;;19.03;50.52;102317.66;5055472;28;20068;-79
2021/06/12 09:05:51;;;;;;;11.48;3.92;;;;;;;19.32;49.38;102317.28;5062014;28;20067;-78
2021/06/12 09:08:20;;;;;;;10.20;4.03;;;;;;;19.53;49.44;102308.19;5048732;28;20143;-77
2021/06/12 09:10:58;;;;;;;9.35;3.83;;;;;;;19.55;48.37;102310.81;5056037;28;20075;-77
2021/06/12 09:13:45;;;;;;;10.43;4.07;;;;;;;19.59;47.60;102307.88;5052060;28;20057;-77
2021/06/12 09:16:28;;;;;;;11.95;4.10;;;;;;;20.37;47.11;102315.91;5056056;28;20143;-78
2021/06/12 09:19:12;;;;;;;12.25;4.32;;;;;;;19.87;48.11;102319.25;5052914;28;20198;-77
2021/06/12 09:21:42;;;;;;;13.52;4.43;;;;;;;20.63;46.99;102311.03;5057297;28;20052;-77
2021/06/12 09:24:22;;;;;;;9.00;3.63;;;;;;;20.54;46.91;102315.06;5054370;28;20966;-78
2021/06/12 09:26:53;;;;;;;10.20;4.50;;;;;;;20.23;46.90;102329.28;5058954;28;20068;-78
2021/06/12 09:29:32;;;;;;;12.52;4.57;;;;;;;20.27;47.11;102329.03;5055181;28;20071;-78
2021/06/12 09:32:01;;;;;;;7.95;3.65;;;;;;;20.96;45.69;102326.50;5060128;28;20063;-80
2021/06/12 09:34:33;;;;;;;9.05;3.70;;;;;;;20.36;46.01;102332.25;5056445;28;20053;-78
2021/06/12 09:37:12;;;;;;;9.13;3.90;;;;;;;20.37;47.67;102334.00;5060896;28;20095;-78
2021/06/12 09:39:59;;;;;;;13.85;4.80;;;;;;;20.19;48.21;102346.63;5050328;28;20232;-75
2021/06/12 09:42:43;;;;;;;12.35;4.53;;;;;;;20.20;48.53;102337.56;5055022;28;20056;-77
2021/06/12 09:45:12;;;;;;;12.05;4.13;;;;;;;20.47;47.38;102351.56;5054785;28;20151;-75
2021/06/12 09:47:41;;;;;;;10.85;3.70;;;;;;;21.03;46.75;102352.38;5058954;28;20737;-77
2021/06/12 09:50:11;;;;;;;10.20;4.00;;;;;;;20.13;46.55;102355.94;5052821;28;20057;-78
2021/06/12 09:52:43;;;;;;;7.05;3.78;;;;;;;19.88;47.98;102358.94;5058256;28;20130;-77
2021/06/12 09:55:22;;;;;;;12.57;4.60;;;;;;;20.26;46.77;102354.41;5053189;28;20594;-78
2021/06/12 09:57:51;;;;;;;10.05;3.72;;;;;;;19.49;47.27;102362.53;5053407;28;20052;-77
2021/06/12 10:00:29;;;;;;;10.95;4.38;;;;;;;19.67;47.28;102368.94;5062432;28;20693;-78
2021/06/12 10:03:01;;;;;;;17.23;6.00;;;;;;;19.91;47.43;102372.34;5059547;28;20068;-80
2021/06/12 10:05:29;;;;;;;12.73;4.35;;;;;;;19.58;47.83;102363.00;5072729;28;20156;-78
2021/06/12 10:07:57;;;;;;;11.20;4.60;;;;;;;19.55;47.78;102371.25;5058260;28;20064;-80
2021/06/12 10:10:26;;;;;;;14.10;4.03;;;;;;;19.59;48.40;102370.13;5058079;28;20053;-78
2021/06/12 10:13:00;;;;;;;12.00;6.07;;;;;;;20.16;48.21;102369.34;5055999;28;20054;-77
2021/06/12 10:15:28;;;;;;;8.32;3.78;;;;;;;20.24;48.19;102374.38;5055625;28;20063;-78
2021/06/12 10:17:56;;;;;;;10.98;5.15;;;;;;;19.70;48.82;102375.09;5053322;28;21474;-77
2021/06/12 10:20:26;;;;;;;12.45;4.95;;;;;;;20.16;49.33;102377.47;5056850;28;20065;-74
2021/06/12 10:22:56;;;;;;;12.93;5.07;;;;;;;20.51;48.64;102375.72;5058971;28;20351;-74
2021/06/12 10:25:24;;;;;;;12.70;4.65;;;;;;;20.42;49.13;102376.19;5054858;28;20114;-73
2021/06/12 10:27:52;;;;;;;17.30;5.28;;;;;;;20.67;47.18;102369.56;5057554;28;20060;-74
2021/06/12 10:30:24;;;;;;;11.02;4.50;;;;;;;20.37;48.26;102372.84;5051479;28;20170;-75
2021/06/12 10:32:54;;;;;;;12.77;5.10;;;;;;;20.67;48.78;102366.84;5058132;28;20749;-74
2021/06/12 10:35:24;;;;;;;12.63;4.45;;;;;;;20.94;47.28;102369.13;5051495;28;20766;-78
2021/06/12 10:38:01;;;;;;;15.50;6.70;;;;;;;21.52;45.54;102367.91;5059317;28;20052;-79
2021/06/12 10:40:38;;;;;;;12.80;4.57;;;;;;;21.56;45.66;102375.81;5057492;28;20084;-76
2021/06/12 10:43:13;;;;;;;8.48;4.25;;;;;;;20.89;46.60;102383.81;5058798;28;20718;-76
2021/06/12 10:45:45;;;;;;;14.38;5.25;;;;;;;21.19;46.25;102380.44;5054786;28;20159;-75
2021/06/12 10:48:40;;;;;;;12.10;5.03;;;;;;;20.80;46.81;102383.41;5055367;28;20541;-73
2021/06/12 10:51:08;;;;;;;11.63;4.43;;;;;;;21.63;45.74;102385.38;5051559;28;20463;-76
2021/06/12 10:53:38;;;;;;;10.70;5.05;;;;;;;21.72;45.78;102388.53;5054377;28;20056;-77
2021/06/12 10:56:06;;;;;;;13.77;4.65;;;;;;;21.67;45.67;102393.34;5055415;28;20502;-75
2021/06/12 10:58:50;;;;;;;12.68;5.13;;;;;;;21.48;44.03;102398.91;5056381;28;20092;-79
2021/06/12 11:01:23;;;;;;;11.82;5.60;;;;;;;21.25;45.11;102395.56;5054927;28;20114;-77
2021/06/12 11:03:56;;;;;;;;;;;;;;;21.18;46.40;102394.09;5060767;28;20056;-76
2021/06/12 11:06:44;;;;;;;10.95;4.00;;;;;;;21.48;45.25;102399.78;5056724;28;20303;-76
2021/06/12 11:09:31;;;;;;;10.45;4.40;;;;;;;21.25;45.27;102393.69;5061749;28;20080;-79
2021/06/12 11:12:01;;;;;;;12.48;4.10;;;;;;;21.61;46.26;102406.31;5069951;28;20081;-78
2021/06/12 11:14:34;;;;;;;10.20;3.97;;;;;;;21.04;45.06;102398.44;5059350;28;20088;-76
2021/06/12 11:17:18;;;;;;;17.60;5.22;;;;;;;21.18;46.96;102392.28;5072179;28;20147;-73
2021/06/12 11:19:51;;;;;;;8.98;4.10;;;;;;;21.22;43.30;102402.00;5057259;28;20443;-77
2021/06/12 11:22:31;;;;;;;6.88;3.55;;;;;;;21.41;44.40;102420.91;5057760;28;20447;-78
2021/06/12 11:25:01;;;;;;;11.27;4.03;;;;;;;21.66;43.72;102414.22;5057617;28;20075;-78
2021/06/12 11:27:34;;;;;;;12.32;4.28;;;;;;;21.74;44.67;102401.09;5058132;28;20143;-75
2021/06/12 11:30:24;;;;;;;11.50;4.63;;;;;;;21.61;44.13;102400.88;5059298;28;20517;-77